Wales, WI

7:41 AM CDT on May 05, 2015 (GMT -0500)
GENESEE | | Change Station
CLOSE
Current Station
Personal Weather Station
Location: GENESEE DEPOT, WI
Elevation: 931 ft
Nearby Weather Stations

Elev 931 ft 42.97 °N, 88.36 °W | Updated 15 seconds ago

Rain
Rain
46.5 °F
Feels Like 46 °F
N
0.0
Wind Variable Wind from East
Gusts 1.0 mph

Today
High -- | Low -- °F
--% Chance of Precip.
Yesterday
High -- | Low -- °F
Precip. -- in
5:42 AM 7:58 PM
Full, 98% visible
Pressure 30.27 in
Visibility 7.0 miles
Clouds Mostly Cloudy 3800 ft
Overcast 4600 ft
Windchill 46 °F
Dew Point 45 °F
Humidity 94%
Rainfall 0.14 in
Snow Depth Not available.
UV 0.0 out of 12
Pollen 6.60 out of 12
Air Quality Not available.
Flu Activity Local Activity
METAR KUES 051145Z 07006KT 7SM BKN038 OVC046 08/04 A3027

More Conditions Fewer Conditions

Pressure 30.27 in
Visibility 7.0 miles
Clouds Mostly Cloudy 3800 ft
Overcast 4600 ft
Windchill 46 °F
Dew Point 45 °F
Humidity 94%
Rainfall 0.14 in
Snow Depth Not available.
UV 0.0 out of 12
Pollen 6.60 out of 12
Air Quality Not available.
Flu Activity Local Activity
METAR KUES 051145Z 07006KT 7SM BKN038 OVC046 08/04 A3027

More Conditions Fewer Conditions

Nepal has a long way to go to dig out and rebuild from a devastating earthquake. We have teamed up with several charities and organizations to make contributing to the relief effort as easy as possible.
How you can help: Portlight Strategies | Red Cross
Nowcast | as of 4:51 am CDT on May 5, 2015

a wet morning commute... Showers will continue to affect most of south central and southeast Wisconsin through 8 am. An isolated thunderstorm is also possible. Rainfall of one quarter inch to one inch is expected this morning. Temperatures will remain in the middle 40s to middle 50s. The showers will taper off later this morning. Drive more carefully this morning due to the wet roads.

×

10-Day Weather Forecast

Almanac

Astronomy

May. 05, 2015 Rise Set
Actual Time
Civil Twilight
Nautical Twilight
Astronomical Twilight
Moon
Length of Visible Light
Length of Day
Tomorrow will be .
, % of the Moon is Illuminated

Today's Extremes

State Highs State Lows

Community

WunderPhotos

Upload Photos

1,818,875 photos uploaded!

WunderBlogs® & News

Nearby

Air Quality

  Air Quality AQ Index Pollutant
Not available.

Snow Depth

Station Depth Elevation

Earthquake Activity

City Distance Mag. Time & Date
Minimum magnitude displayed is 2.5.

Coastal Water Temperatures

Place Temperature

Stations

Nearby Weather Stations

Station Location Temp. Windchill Dew Point Humidity Wind Precip. Elev Updated Type